Time;durP1;ratioP1;P1;durP2;ratioP2;P2;SDS_P1;SDS_P2;PMS_P1;PMS_P2;Temp;Humidity;BMP_temperature;BMP_pressure;BME280_temperature;BME280_humidity;BME280_pressure;Samples;Min_cycle;Max_cycle;Signal;HPM_P1;HPM_P2
2022/07/02 00:02:02;;;;;;;13.30;6.42;;;;;;;22.83;58.35;99058.27;1702787;84;21012;-89
2022/07/02 00:04:32;;;;;;;11.70;6.45;;;;;;;22.78;58.86;99064.37;1698152;84;21024;-90
2022/07/02 00:07:00;;;;;;;10.48;5.97;;;;;;;22.72;60.12;99068.36;1694088;83;21466;-89
2022/07/02 00:09:27;;;;;;;11.93;6.35;;;;;;;22.71;58.97;99063.17;1712094;84;20987;-89
2022/07/02 00:11:59;;;;;;;11.40;6.78;;;;;;;22.70;59.64;99070.29;1711965;84;21071;-89
2022/07/02 00:14:27;;;;;;;11.45;6.85;;;;;;;22.69;59.50;99072.56;1712416;84;21002;-89
2022/07/02 00:16:57;;;;;;;12.35;6.65;;;;;;;22.62;58.76;99071.32;1712282;84;21003;-89
2022/07/02 00:19:24;;;;;;;11.63;5.78;;;;;;;22.49;59.46;99073.22;1712347;84;20991;-89
2022/07/02 00:21:51;;;;;;;11.50;5.95;;;;;;;22.30;60.95;99063.97;1692284;84;20993;-90
2022/07/02 00:24:18;;;;;;;11.25;6.22;;;;;;;22.20;60.63;99074.85;1712173;82;21063;-89
2022/07/02 00:26:57;;;;;;;11.48;5.60;;;;;;;22.12;60.24;99081.19;1712350;82;21050;-90
2022/07/02 00:30:00;;;;;;;10.88;5.53;;;;;;;22.01;60.14;99080.66;1712331;84;21047;-89
2022/07/02 00:32:33;;;;;;;12.43;6.50;;;;;;;21.90;60.86;99078.77;1712682;84;21054;-89
2022/07/02 00:35:08;;;;;;;10.32;5.90;;;;;;;21.82;61.63;99082.45;1712525;83;21031;-89
2022/07/02 00:37:37;;;;;;;12.65;6.28;;;;;;;21.75;61.59;99071.96;1712245;83;21534;-89
2022/07/02 00:40:07;;;;;;;12.10;5.95;;;;;;;21.78;62.17;99080.98;1712404;84;21005;-89
2022/07/02 00:42:36;;;;;;;12.60;5.78;;;;;;;21.78;62.91;99087.11;1712571;82;21451;-89
2022/07/02 00:45:05;;;;;;;11.18;5.87;;;;;;;21.78;62.45;99083.62;1712451;82;20980;-89
2022/07/02 00:47:33;;;;;;;9.10;5.72;;;;;;;21.79;61.87;99080.88;1712432;84;20952;-89
2022/07/02 00:50:04;;;;;;;10.28;6.30;;;;;;;21.79;62.06;99076.91;1712570;84;20940;-89
2022/07/02 00:52:31;;;;;;;15.72;7.15;;;;;;;21.80;61.99;99079.07;1712439;84;21060;-89
2022/07/02 00:54:58;;;;;;;12.55;6.42;;;;;;;21.79;62.86;99074.75;1711159;82;21096;-88
2022/07/02 00:57:25;;;;;;;10.93;7.10;;;;;;;21.78;63.99;99080.50;1702548;84;21020;-89
2022/07/02 00:59:52;;;;;;;16.90;7.00;;;;;;;21.78;65.25;99079.66;1701737;84;21019;-89
2022/07/02 01:02:25;;;;;;;13.03;6.72;;;;;;;21.76;63.92;99074.95;1702160;84;21087;-89
2022/07/02 01:04:55;;;;;;;13.83;6.78;;;;;;;21.70;63.56;99070.11;1703480;84;21103;-89
2022/07/02 01:07:22;;;;;;;12.00;7.22;;;;;;;21.63;63.56;99065.26;1654284;84;21075;-89
2022/07/02 01:12:41;;;;;;;14.73;7.95;;;;;;;21.58;63.68;99062.56;1676260;84;21091;-89
2022/07/02 01:15:10;;;;;;;12.53;6.80;;;;;;;21.48;64.03;99060.20;1678058;84;21079;-89
2022/07/02 01:17:38;;;;;;;10.98;7.10;;;;;;;21.39;65.00;99060.36;1650296;86;21067;-89
2022/07/02 01:20:09;;;;;;;11.97;6.83;;;;;;;21.34;64.01;99061.15;1672852;85;21083;-89
2022/07/02 01:22:41;;;;;;;16.25;6.87;;;;;;;21.27;64.54;99060.74;1678613;84;21002;-90
2022/07/02 01:25:10;;;;;;;14.68;7.58;;;;;;;21.24;64.26;99071.03;1675286;86;21023;-88
2022/07/02 01:27:39;;;;;;;13.28;6.92;;;;;;;21.22;64.54;99075.58;1674882;86;20995;-86
2022/07/02 01:30:08;;;;;;;12.00;6.22;;;;;;;21.20;65.49;99079.30;1656179;84;21064;-89
2022/07/02 01:32:37;;;;;;;20.20;6.15;;;;;;;21.18;65.90;99084.67;1703548;84;21060;-89
2022/07/02 01:35:08;;;;;;;10.98;6.50;;;;;;;21.18;65.32;99077.23;1677521;84;21090;-89
2022/07/02 01:37:41;;;;;;;13.75;6.62;;;;;;;21.12;65.55;99076.34;1703561;84;21014;-89
2022/07/02 01:40:09;;;;;;;14.80;7.45;;;;;;;21.10;65.87;99081.72;1676762;84;21031;-89
2022/07/02 01:42:38;;;;;;;13.00;7.08;;;;;;;21.12;66.28;99081.63;1701912;84;21067;-89
2022/07/02 01:45:09;;;;;;;12.93;7.60;;;;;;;21.07;66.62;99081.95;1702156;84;21028;-89
2022/07/02 01:47:41;;;;;;;11.90;6.47;;;;;;;20.99;66.84;99074.54;1701945;84;21064;-89
2022/07/02 01:50:10;;;;;;;;;;;;;;;20.95;66.37;99073.06;1656929;84;21075;-90
2022/07/02 01:52:37;;;;;;;15.15;7.58;;;;;;;20.93;66.94;99080.70;1674199;84;20118;-89
2022/07/02 01:55:06;;;;;;;14.50;8.10;;;;;;;20.91;65.28;99082.60;1703072;83;21089;-89
2022/07/02 01:57:35;;;;;;;11.15;7.22;;;;;;;20.90;65.21;99077.80;1716254;83;21027;-89
2022/07/02 02:00:10;;;;;;;10.95;7.35;;;;;;;20.88;66.96;99074.90;1692244;84;21095;-89
2022/07/02 02:02:38;;;;;;;14.73;6.92;;;;;;;20.85;65.57;99075.48;1692246;84;21007;-89
2022/07/02 02:05:07;;;;;;;14.10;6.62;;;;;;;20.88;66.46;99070.94;1692203;84;21495;-89
2022/07/02 02:07:37;;;;;;;17.00;7.37;;;;;;;20.88;66.32;99065.17;1692174;84;20983;-89
2022/07/02 02:10:05;;;;;;;15.53;6.78;;;;;;;20.90;67.54;99069.03;1688588;84;21035;-89
2022/07/02 02:12:32;;;;;;;10.28;6.67;;;;;;;20.90;65.23;99067.72;1662934;84;21004;-88
2022/07/02 02:15:00;;;;;;;12.82;7.28;;;;;;;20.90;66.08;99076.97;1692093;84;20983;-89
2022/07/02 02:17:29;;;;;;;11.50;5.97;;;;;;;20.92;66.37;99074.58;1712239;83;21043;-89
2022/07/02 02:19:56;;;;;;;10.98;6.75;;;;;;;20.97;66.03;99075.58;1712137;84;20986;-89
2022/07/02 02:22:25;;;;;;;10.85;6.55;;;;;;;21.01;65.57;99081.89;1712180;83;21007;-89
2022/07/02 02:24:55;;;;;;;10.65;6.33;;;;;;;21.04;67.35;99082.14;1712232;84;21042;-89
2022/07/02 02:27:22;;;;;;;11.10;6.70;;;;;;;21.05;66.95;99083.86;1692459;84;21071;-89
2022/07/02 02:29:54;;;;;;;10.00;6.60;;;;;;;21.08;66.91;99088.91;1692495;84;21069;-89
2022/07/02 02:32:21;;;;;;;12.30;6.37;;;;;;;21.12;66.43;99093.03;1670249;84;20998;-89
2022/07/02 02:34:55;;;;;;;9.78;6.17;;;;;;;21.16;67.18;99089.23;1670299;84;20985;-89
2022/07/02 02:37:22;;;;;;;12.58;6.42;;;;;;;21.23;66.77;99089.19;1670517;84;20986;-90
2022/07/02 02:39:51;;;;;;;13.10;6.25;;;;;;;21.26;66.14;99095.56;1712418;83;21057;-89
2022/07/02 02:42:19;;;;;;;11.25;6.65;;;;;;;21.33;66.69;99105.71;1688506;84;21074;-89
2022/07/02 02:44:48;;;;;;;12.50;7.15;;;;;;;21.34;68.71;99114.87;1637025;84;21031;-90
2022/07/02 02:47:15;;;;;;;12.45;6.58;;;;;;;21.37;66.84;99121.28;1692506;84;21074;-90
2022/07/02 02:49:44;;;;;;;10.30;6.83;;;;;;;21.37;66.63;99133.67;1669823;84;21072;-90
2022/07/02 02:52:14;;;;;;;11.28;6.50;;;;;;;21.33;66.55;99138.77;1712277;84;21059;-90
2022/07/02 02:54:40;;;;;;;12.37;6.37;;;;;;;21.31;67.18;99140.67;1711726;83;21090;-90
2022/07/02 02:57:13;;;;;;;11.90;6.47;;;;;;;21.37;67.23;99141.59;1760123;81;21065;-89
2022/07/02 02:59:44;;;;;;;12.70;6.45;;;;;;;21.42;67.08;99136.34;1730380;82;20985;-89
2022/07/02 03:02:12;;;;;;;15.50;6.67;;;;;;;21.48;66.71;99137.75;1707240;82;20985;-90
2022/07/02 03:04:39;;;;;;;10.35;6.22;;;;;;;21.51;66.68;99138.88;1689270;84;21018;-90
2022/07/02 03:07:06;;;;;;;15.65;7.35;;;;;;;21.53;65.73;99144.90;1676651;84;20991;-89
2022/07/02 03:09:34;;;;;;;14.47;6.90;;;;;;;21.51;66.50;99143.33;1712053;83;21076;-89
2022/07/02 03:12:02;;;;;;;12.37;7.30;;;;;;;21.52;66.61;99144.52;1712217;83;20960;-90
2022/07/02 03:14:32;;;;;;;12.60;7.33;;;;;;;21.53;66.70;99148.03;1712049;84;21035;-89
2022/07/02 03:16:59;;;;;;;11.12;7.33;;;;;;;21.49;65.87;99156.65;1711924;84;21007;-90
2022/07/02 03:19:26;;;;;;;15.25;6.92;;;;;;;21.41;67.64;99150.53;1730048;83;21022;-89
2022/07/02 03:21:54;;;;;;;24.35;7.05;;;;;;;21.35;65.55;99150.12;1700524;81;21012;-89
2022/07/02 03:24:22;;;;;;;14.23;6.35;;;;;;;21.31;66.84;99153.44;1682880;83;21029;-88
2022/07/02 03:26:50;;;;;;;9.95;6.22;;;;;;;21.28;67.56;99152.80;1633344;85;21097;-88
2022/07/02 03:29:36;;;;;;;12.73;7.22;;;;;;;21.28;67.83;99152.80;1695054;81;21121;31
2022/07/02 03:32:04;;;;;;;20.25;7.67;;;;;;;21.29;67.67;99156.66;1671683;84;21126;-87
2022/07/02 03:34:31;;;;;;;15.83;7.17;;;;;;;21.28;67.49;99160.73;1639010;83;21116;-87
2022/07/02 03:36:58;;;;;;;16.50;6.50;;;;;;;21.29;67.41;99163.73;1669398;83;21535;-88
2022/07/02 03:39:25;;;;;;;10.88;6.75;;;;;;;21.23;69.38;99166.34;1689065;84;21003;-88
2022/07/02 03:41:52;;;;;;;13.05;6.70;;;;;;;21.17;68.45;99164.95;1699334;84;21032;-88
2022/07/02 03:44:19;;;;;;;13.80;6.65;;;;;;;21.09;68.53;99169.91;1705461;84;20967;-88
2022/07/02 03:46:46;;;;;;;13.03;6.40;;;;;;;21.02;69.21;99164.66;1684924;84;21008;-89
2022/07/02 03:49:13;;;;;;;10.85;6.72;;;;;;;20.98;69.05;99164.49;1691219;82;21691;-90
2022/07/02 03:51:40;;;;;;;15.75;7.28;;;;;;;20.96;69.13;99175.16;1718340;83;21040;-90
2022/07/02 03:54:07;;;;;;;13.55;7.08;;;;;;;20.94;69.76;99174.90;1720611;82;21068;-89
2022/07/02 03:56:35;;;;;;;12.65;7.67;;;;;;;20.91;68.58;99181.25;1740652;82;21006;-90
2022/07/02 03:59:01;;;;;;;14.28;7.30;;;;;;;20.93;69.74;99178.48;1672187;85;21027;-89
2022/07/02 04:01:28;;;;;;;11.12;7.25;;;;;;;21.00;68.81;99189.02;1677366;84;20958;-89
2022/07/02 04:03:56;;;;;;;14.98;7.75;;;;;;;21.01;68.38;99190.25;1700116;85;21081;-88
2022/07/02 04:06:22;;;;;;;11.65;7.25;;;;;;;21.06;67.93;99200.50;1695289;85;21015;-89
2022/07/02 04:08:53;;;;;;;13.08;7.37;;;;;;;21.08;68.87;99203.05;1671859;86;21029;-89
2022/07/02 04:11:21;;;;;;;11.65;7.10;;;;;;;21.15;69.24;99206.51;1594137;86;21028;-89
2022/07/02 04:13:49;;;;;;;14.80;7.15;;;;;;;21.21;67.66;99212.70;1630568;82;21034;-89
2022/07/02 04:16:16;;;;;;;15.05;8.08;;;;;;;21.28;68.40;99214.45;1712729;84;21015;-90
2022/07/02 04:18:44;;;;;;;18.27;7.33;;;;;;;21.34;67.31;99215.84;1717836;83;21001;-90
2022/07/02 04:21:15;;;;;;;12.80;7.67;;;;;;;21.34;67.69;99226.41;1668137;85;21003;-90
2022/07/02 04:23:43;;;;;;;12.33;6.65;;;;;;;21.34;67.93;99229.06;1664501;85;21073;-90
2022/07/02 04:26:13;;;;;;;11.15;6.72;;;;;;;21.37;67.32;99234.16;1688245;85;20963;-90
2022/07/02 04:28:45;;;;;;;14.33;6.90;;;;;;;21.42;67.31;99226.73;1664922;85;21070;-90
2022/07/02 04:31:15;;;;;;;16.07;6.95;;;;;;;21.48;67.54;99235.61;1697718;84;21028;-90
2022/07/02 04:33:44;;;;;;;8.95;6.50;;;;;;;21.57;67.93;99229.70;1697165;84;21014;-90
2022/07/02 04:36:14;;;;;;;14.50;7.00;;;;;;;21.70;67.45;99236.80;1695001;84;21014;-90
2022/07/02 04:38:46;;;;;;;16.12;6.85;;;;;;;21.79;67.10;99230.39;1714813;84;21061;-89
2022/07/02 04:41:16;;;;;;;11.90;6.87;;;;;;;21.90;67.25;99240.70;1687593;84;21011;-88
2022/07/02 04:43:45;;;;;;;10.40;6.55;;;;;;;22.01;66.97;99228.41;1665044;84;21501;-90
2022/07/02 04:46:13;;;;;;;12.00;6.33;;;;;;;22.14;66.92;99227.54;1643670;84;20946;-90
2022/07/02 04:48:42;;;;;;;18.35;8.43;;;;;;;22.27;66.70;99231.05;1689224;83;21021;-90
2022/07/02 04:51:13;;;;;;;17.25;9.20;;;;;;;22.41;66.50;99233.55;1689263;84;20942;-90
2022/07/02 04:53:44;;;;;;;18.45;10.25;;;;;;;22.54;66.21;99236.18;1686163;84;21106;-90
2022/07/02 04:56:14;;;;;;;19.65;11.12;;;;;;;22.66;65.92;99231.80;1633432;87;21062;-90
2022/07/02 04:58:46;;;;;;;18.87;9.25;;;;;;;22.75;65.08;99243.52;1643361;86;21045;-90
2022/07/02 05:01:16;;;;;;;16.93;8.18;;;;;;;22.74;65.04;99249.30;1638574;86;21081;-90
2022/07/02 05:03:44;;;;;;;13.45;8.05;;;;;;;22.78;64.91;99256.06;1682482;84;21119;-90
2022/07/02 05:06:14;;;;;;;16.25;7.83;;;;;;;22.82;65.47;99254.88;1626350;87;21086;-90
2022/07/02 05:08:45;;;;;;;17.57;8.33;;;;;;;22.86;65.08;99254.19;1673621;85;21029;-90
2022/07/02 05:11:18;;;;;;;16.82;7.83;;;;;;;22.87;64.89;99254.53;1653545;86;21036;-90
2022/07/02 05:13:49;;;;;;;16.05;9.18;;;;;;;22.88;64.81;99269.95;1638742;86;21079;-90
2022/07/02 05:16:25;;;;;;;14.43;8.75;;;;;;;22.88;64.86;99276.58;1647422;85;21047;-90
2022/07/02 05:18:55;;;;;;;17.73;8.85;;;;;;;22.90;65.03;99284.81;1710351;83;21064;-90
2022/07/02 05:21:24;;;;;;;23.63;8.00;;;;;;;22.95;64.38;99288.44;1705092;84;21011;-90
2022/07/02 05:23:56;;;;;;;18.60;8.23;;;;;;;22.95;64.45;99288.44;1716751;82;21078;-90
2022/07/02 05:26:26;;;;;;;16.25;8.75;;;;;;;22.95;64.89;99280.48;1676047;84;21059;-90
2022/07/02 05:28:56;;;;;;;14.83;8.75;;;;;;;23.00;64.65;99285.82;1676782;84;20983;-90
2022/07/02 05:31:29;;;;;;;20.85;7.85;;;;;;;23.07;64.39;99283.59;1687618;85;21096;-90
2022/07/02 05:34:00;;;;;;;13.08;7.80;;;;;;;23.15;64.78;99301.09;1653559;85;21082;-90
2022/07/02 05:36:31;;;;;;;15.83;8.18;;;;;;;23.23;64.25;99305.34;1682610;85;21116;-90
2022/07/02 05:39:03;;;;;;;15.43;8.08;;;;;;;23.36;64.15;99307.95;1654132;84;21045;-90
2022/07/02 05:41:31;;;;;;;15.28;7.47;;;;;;;23.47;63.79;99314.25;1660516;85;21131;-90
2022/07/02 05:44:03;;;;;;;16.65;8.48;;;;;;;23.61;63.52;99331.30;1711924;84;20991;-90
2022/07/02 05:46:34;;;;;;;19.75;8.45;;;;;;;23.76;63.34;99327.50;1712049;83;21120;-90
2022/07/02 05:49:05;;;;;;;17.90;8.45;;;;;;;23.91;62.99;99333.95;1694097;84;20988;-90
2022/07/02 05:51:40;;;;;;;19.92;8.93;;;;;;;24.01;62.62;99330.95;1712033;83;21043;-90
2022/07/02 05:54:17;;;;;;;18.52;8.25;;;;;;;24.11;62.83;99331.92;1666494;85;21086;-90
2022/07/02 05:56:47;;;;;;;;;;;;;;;24.29;62.33;99329.67;1686116;85;21035;-90
2022/07/02 05:59:17;;;;;;;13.15;7.33;;;;;;;24.40;62.32;99329.66;1652038;85;20119;-90
2022/07/02 06:01:56;;;;;;;19.70;7.62;;;;;;;24.53;62.06;99328.25;1689203;85;21051;-90
2022/07/02 06:04:25;;;;;;;15.60;7.37;;;;;;;24.69;61.76;99329.66;1683587;85;21015;-90
2022/07/02 06:09:50;;;;;;;14.38;6.67;;;;;;;25.00;61.12;99329.38;1712062;83;21047;-90
2022/07/02 06:12:20;;;;;;;11.03;7.00;;;;;;;25.18;60.41;99339.83;1667572;83;21099;-90
2022/07/02 06:14:47;;;;;;;15.05;7.03;;;;;;;25.16;60.02;99335.61;1627161;88;21016;-90
2022/07/02 06:17:14;;;;;;;13.78;6.78;;;;;;;25.16;59.68;99329.80;1627273;88;21043;-90
2022/07/02 06:19:42;;;;;;;12.75;6.30;;;;;;;25.26;59.65;99331.25;1627215;88;21004;-90
2022/07/02 06:22:09;;;;;;;13.65;6.60;;;;;;;25.32;59.62;99333.41;1627258;88;21051;-90
2022/07/02 06:24:36;;;;;;;15.72;7.33;;;;;;;25.36;59.24;99336.17;1627200;88;21016;-90
2022/07/02 06:27:04;;;;;;;8.43;6.15;;;;;;;25.44;58.96;99347.52;1625205;88;20983;-89
2022/07/02 06:29:31;;;;;;;8.93;5.47;;;;;;;25.50;58.93;99346.17;1625963;88;21068;-89
2022/07/02 06:31:58;;;;;;;13.03;5.92;;;;;;;25.57;58.79;99342.88;1625878;88;21131;-90
2022/07/02 06:34:25;;;;;;;14.98;6.12;;;;;;;25.66;58.45;99347.06;1627065;88;21091;-89
2022/07/02 06:36:52;;;;;;;11.30;6.00;;;;;;;25.76;58.23;99351.47;1643298;86;20975;-89
2022/07/02 06:39:19;;;;;;;10.80;6.03;;;;;;;25.82;57.96;99350.11;1619985;87;21817;-89
2022/07/02 06:44:32;;;;;;;8.98;6.17;;;;;;;25.98;57.50;99341.23;1581551;91;21066;-89
2022/07/02 06:46:59;;;;;;;10.95;6.28;;;;;;;26.08;57.27;99343.09;1594850;90;21001;-88
2022/07/02 06:49:26;;;;;;;11.05;6.28;;;;;;;26.18;57.26;99346.65;1612425;86;21087;-89
2022/07/02 06:51:53;;;;;;;10.90;5.85;;;;;;;26.31;56.88;99340.63;1654640;87;21003;-89
2022/07/02 06:54:20;;;;;;;9.85;5.90;;;;;;;26.46;56.29;99352.26;1657198;86;21047;-89
2022/07/02 06:56:48;;;;;;;9.50;5.78;;;;;;;26.61;56.14;99346.13;1648871;87;21010;-89
2022/07/02 06:59:14;;;;;;;9.35;5.55;;;;;;;26.77;55.81;99349.95;1627401;88;21101;-89
2022/07/02 07:01:41;;;;;;;11.70;5.90;;;;;;;26.91;55.16;99354.06;1618737;89;20956;-89
2022/07/02 07:04:08;;;;;;;12.60;6.30;;;;;;;26.97;54.60;99354.00;1641896;88;21036;-89
2022/07/02 07:06:39;;;;;;;9.88;6.00;;;;;;;26.98;53.80;99346.37;1627179;88;21102;-90
2022/07/02 07:09:09;;;;;;;10.75;6.50;;;;;;;27.06;53.28;99345.19;1604117;89;21087;-90
2022/07/02 07:11:39;;;;;;;14.87;5.58;;;;;;;27.12;52.85;99345.97;1619819;86;21039;-90
2022/07/02 07:14:12;;;;;;;8.35;5.92;;;;;;;27.21;53.12;99350.11;1601232;89;21072;-90
2022/07/02 07:16:42;;;;;;;10.53;5.83;;;;;;;27.41;53.55;99347.83;1605365;88;21072;-90
2022/07/02 07:19:14;;;;;;;9.68;6.22;;;;;;;27.66;52.99;99354.95;1639242;87;21007;-89
2022/07/02 07:21:43;;;;;;;8.98;5.72;;;;;;;27.86;52.17;99347.75;1614488;88;20995;-89
2022/07/02 07:24:13;;;;;;;9.20;5.97;;;;;;;28.01;51.77;99351.67;1638756;87;21013;-89
2022/07/02 07:26:40;;;;;;;8.70;5.97;;;;;;;28.18;50.87;99356.78;1617952;88;21090;-89
2022/07/02 07:29:07;;;;;;;9.90;6.00;;;;;;;28.27;49.85;99365.28;1617865;89;21050;-89
2022/07/02 07:31:35;;;;;;;11.93;6.30;;;;;;;28.31;50.07;99359.98;1637655;88;21031;-89
2022/07/02 07:34:09;;;;;;;8.70;5.37;;;;;;;28.42;49.72;99356.27;1638771;87;21011;-90
2022/07/02 07:36:36;;;;;;;14.47;5.95;;;;;;;28.58;49.59;99351.67;1647469;84;21100;-89
2022/07/02 07:39:03;;;;;;;9.23;5.20;;;;;;;28.82;49.55;99350.29;1745161;82;21014;-90
2022/07/02 07:41:30;;;;;;;7.97;5.42;;;;;;;29.06;48.75;99352.39;1739011;83;21002;-90
2022/07/02 07:43:57;;;;;;;8.48;5.20;;;;;;;29.27;47.86;99346.80;1711922;84;21076;-90
2022/07/02 07:46:24;;;;;;;8.68;5.22;;;;;;;29.40;47.66;99353.93;1713848;84;21025;-89
2022/07/02 07:48:51;;;;;;;9.20;5.30;;;;;;;29.60;46.86;99353.27;1727928;83;21098;-89
2022/07/02 07:51:19;;;;;;;9.25;4.72;;;;;;;29.78;47.19;99347.09;1770980;80;21026;-90
2022/07/02 07:53:46;;;;;;;9.98;5.25;;;;;;;30.07;46.26;99357.02;1771478;80;21502;-91
2022/07/02 07:56:15;;;;;;;7.35;5.28;;;;;;;30.32;43.78;99350.48;1702188;81;21120;-91
2022/07/02 07:58:42;;;;;;;7.22;5.00;;;;;;;30.62;45.33;99354.98;1692555;85;21075;-90
2022/07/02 08:01:09;;;;;;;9.23;5.10;;;;;;;30.95;44.76;99347.93;1690110;85;21003;-91
2022/07/02 08:03:36;;;;;;;9.18;6.05;;;;;;;31.20;45.08;99350.69;1716885;83;20966;-90
2022/07/02 08:06:03;;;;;;;11.78;5.50;;;;;;;31.53;44.74;99355.61;1703175;84;21059;-90
2022/07/02 08:08:30;;;;;;;10.10;5.25;;;;;;;31.84;44.23;99347.72;1718183;81;21074;-91
2022/07/02 08:10:58;;;;;;;10.38;6.35;;;;;;;32.09;43.71;99351.73;1721147;83;21078;-90
2022/07/02 08:13:28;;;;;;;9.70;5.03;;;;;;;32.17;42.36;99347.71;1721478;83;21032;-90
2022/07/02 08:15:55;;;;;;;7.87;4.90;;;;;;;32.15;42.04;99344.33;1692690;83;21012;-90
2022/07/02 08:18:25;;;;;;;8.93;4.75;;;;;;;32.23;41.27;99354.23;1700404;82;21082;-87
2022/07/02 08:20:52;;;;;;;9.13;5.28;;;;;;;32.31;41.88;99358.23;1673258;83;21084;-89
2022/07/02 08:23:22;;;;;;;11.55;5.15;;;;;;;32.39;42.01;99355.55;1715944;84;21069;-91
2022/07/02 08:25:50;;;;;;;10.82;5.10;;;;;;;32.48;41.31;99359.05;1715848;84;21012;-90
2022/07/02 08:28:17;;;;;;;7.67;5.03;;;;;;;32.55;41.08;99365.45;1719130;81;22815;-90
2022/07/02 08:30:45;;;;;;;9.70;4.92;;;;;;;32.62;41.31;99365.07;1778208;79;20994;-91
2022/07/02 08:33:16;;;;;;;8.65;5.37;;;;;;;32.72;41.13;99362.69;1776595;79;20950;31
2022/07/02 08:35:43;;;;;;;10.15;5.10;;;;;;;32.77;40.61;99358.95;1622316;87;21113;-90
2022/07/02 08:38:11;;;;;;;9.93;5.35;;;;;;;32.85;41.05;99353.03;1649416;86;20999;-90
2022/07/02 08:40:44;;;;;;;8.60;5.30;;;;;;;32.99;40.10;99347.41;1649435;86;21055;-91
2022/07/02 08:43:12;;;;;;;7.42;4.90;;;;;;;32.79;40.50;99352.39;1649336;86;20999;-90
2022/07/02 08:45:42;;;;;;;9.60;5.42;;;;;;;32.80;40.17;99361.30;1649402;87;20988;-90
2022/07/02 08:48:10;;;;;;;11.68;5.47;;;;;;;32.82;40.35;99348.50;1654377;86;20986;-90
2022/07/02 08:50:39;;;;;;;9.90;5.03;;;;;;;32.82;40.35;99360.62;1667047;85;21077;-90
2022/07/02 08:53:19;;;;;;;10.70;5.20;;;;;;;32.90;40.37;99355.19;1655262;85;21010;31
2022/07/02 08:55:50;;;;;;;8.30;5.42;;;;;;;32.94;40.12;99357.03;1643911;87;21065;-90
2022/07/02 08:58:25;;;;;;;8.50;5.70;;;;;;;33.02;40.09;99347.55;1644628;84;21001;31
2022/07/02 09:00:55;;;;;;;8.53;5.65;;;;;;;33.07;40.08;99349.22;1633837;87;21022;-89
2022/07/02 09:03:23;;;;;;;11.28;5.08;;;;;;;33.09;39.29;99345.36;1633937;87;21097;-91
2022/07/02 09:11:30;;;;;;;8.90;5.10;;;;;;;33.26;39.83;99333.95;1679460;83;21054;-89
2022/07/02 09:14:15;;;;;;;8.50;5.42;;;;;;;33.23;38.59;99332.98;1691524;82;21034;31
2022/07/02 09:16:48;;;;;;;9.60;5.33;;;;;;;33.19;38.52;99330.31;1699766;83;21167;-88
2022/07/02 09:19:26;;;;;;;8.73;5.62;;;;;;;33.09;39.25;99337.27;1715356;84;20990;-90
2022/07/02 09:22:09;;;;;;;10.63;5.80;;;;;;;33.02;39.13;99338.95;1687527;84;20983;-91
2022/07/02 09:24:52;;;;;;;9.28;5.62;;;;;;;32.94;39.26;99340.36;1721964;82;21182;-89
2022/07/02 09:27:19;;;;;;;11.30;5.40;;;;;;;32.80;39.05;99337.91;1739241;82;21021;-90
2022/07/02 09:29:55;;;;;;;8.10;4.87;;;;;;;32.78;39.39;99332.38;1726056;82;21050;-90
2022/07/02 09:32:24;;;;;;;7.67;4.87;;;;;;;32.87;39.38;99325.94;1745066;82;21054;-90
2022/07/02 09:34:53;;;;;;;8.88;4.85;;;;;;;32.84;38.24;99315.52;1746120;82;20982;-91
2022/07/02 09:37:25;;;;;;;10.48;5.40;;;;;;;32.79;37.76;99315.19;1705163;81;21079;-90
2022/07/02 09:39:55;;;;;;;10.60;4.92;;;;;;;32.77;38.79;99314.53;1703571;83;21048;-91
2022/07/02 09:42:36;;;;;;;7.03;4.58;;;;;;;32.84;38.67;99308.78;1752884;81;21479;-90
2022/07/02 09:45:08;;;;;;;7.20;4.17;;;;;;;32.90;38.78;99316.14;1743963;81;21086;-90
2022/07/02 09:47:49;;;;;;;8.03;4.65;;;;;;;32.89;38.47;99309.94;1706271;82;21071;-90
2022/07/02 09:50:39;;;;;;;7.25;4.50;;;;;;;32.91;38.39;99308.42;1616198;87;21138;-91
2022/07/02 09:53:11;;;;;;;7.62;5.17;;;;;;;32.99;38.25;99308.84;1695384;83;21069;-91
2022/07/02 09:55:39;;;;;;;9.73;5.00;;;;;;;33.03;38.20;99308.33;1713007;82;21067;-87
2022/07/02 09:58:06;;;;;;;10.65;4.85;;;;;;;33.15;38.05;99305.23;1745613;81;21098;-90
2022/07/02 10:00:37;;;;;;;10.98;4.83;;;;;;;33.22;37.82;99303.52;1743580;80;21074;-90
2022/07/02 10:03:05;;;;;;;7.33;4.92;;;;;;;33.28;37.78;99297.41;1733504;81;21024;-90
2022/07/02 10:05:33;;;;;;;8.93;5.03;;;;;;;33.40;37.75;99293.78;1715418;80;21134;-91
2022/07/02 10:08:04;;;;;;;8.15;4.50;;;;;;;33.55;37.38;99287.92;1720051;84;21067;-90
2022/07/02 10:10:41;;;;;;;8.73;5.12;;;;;;;33.69;36.69;99287.66;1690682;84;21068;-90
2022/07/02 10:13:13;;;;;;;9.18;4.85;;;;;;;33.74;36.61;99289.80;1690723;85;21033;-90
2022/07/02 10:15:51;;;;;;;8.05;4.17;;;;;;;33.72;36.37;99288.62;1690545;81;21001;-90
2022/07/02 10:18:19;;;;;;;8.15;4.60;;;;;;;33.84;36.03;99288.53;1718235;83;20991;-89
2022/07/02 10:20:47;;;;;;;8.53;4.78;;;;;;;33.78;36.12;99278.45;1716994;84;21046;-91
2022/07/02 10:23:15;;;;;;;12.07;4.22;;;;;;;33.83;36.11;99276.05;1717084;81;21041;-91
2022/07/02 10:25:44;;;;;;;7.53;4.25;;;;;;;33.90;35.75;99270.75;1717048;82;20989;-90
2022/07/02 10:28:11;;;;;;;6.78;4.22;;;;;;;33.82;35.28;99267.66;1716975;84;21022;-90
2022/07/02 10:30:41;;;;;;;8.08;4.50;;;;;;;33.80;35.33;99271.02;1717021;81;20997;-90
2022/07/02 10:33:48;;;;;;;5.62;4.03;;;;;;;33.88;34.81;99272.30;1711271;81;21074;-90
2022/07/02 10:36:25;;;;;;;8.50;4.12;;;;;;;33.96;34.75;99278.61;1715480;83;21071;-90
2022/07/02 10:39:05;;;;;;;7.08;4.15;;;;;;;33.97;34.74;99270.87;1715682;83;21007;-90
2022/07/02 10:41:43;;;;;;;7.60;4.30;;;;;;;34.14;34.97;99275.09;1724544;83;21010;-90
2022/07/02 10:44:19;;;;;;;7.20;4.00;;;;;;;34.33;34.97;99274.19;1701159;84;21043;-90
2022/07/02 10:50:00;;;;;;;11.00;3.90;;;;;;;34.39;32.70;99274.26;1668206;83;21079;-91
2022/07/02 10:52:51;;;;;;;8.20;4.00;;;;;;;34.27;32.97;99277.95;1710444;82;21014;-88
2022/07/02 10:55:30;;;;;;;5.65;3.83;;;;;;;34.18;32.97;99269.64;1710263;81;21047;-91
2022/07/02 10:58:03;;;;;;;8.63;3.85;;;;;;;34.16;32.65;99269.48;1693885;82;21094;-91
2022/07/02 11:00:39;;;;;;;6.53;3.90;;;;;;;34.19;32.41;99265.08;1714150;82;21006;-85
2022/07/02 11:03:21;;;;;;;8.88;5.00;;;;;;;34.07;31.84;99268.20;1694410;81;21049;-91
2022/07/02 11:06:04;;;;;;;5.40;3.90;;;;;;;33.81;31.21;99264.62;1683604;81;21075;-88
2022/07/02 11:09:05;;;;;;;7.00;4.12;;;;;;;33.64;32.55;99261.75;1685954;81;21066;-90
2022/07/02 11:11:40;;;;;;;5.83;3.92;;;;;;;33.59;32.86;99256.06;1694218;81;21014;-90
2022/07/02 11:14:11;;;;;;;7.12;4.25;;;;;;;33.64;33.25;99253.66;1694465;82;21001;-91
2022/07/02 11:16:50;;;;;;;8.20;4.50;;;;;;;33.70;32.79;99248.88;1693182;82;21233;-88
2022/07/02 11:19:27;;;;;;;5.20;3.95;;;;;;;33.63;32.88;99248.80;1643564;87;21040;-91
2022/07/02 11:21:59;;;;;;;7.03;4.45;;;;;;;33.63;33.20;99243.41;1652839;85;21039;-91
2022/07/02 11:24:30;;;;;;;7.05;3.92;;;;;;;33.88;33.17;99246.69;1695301;83;20979;-90
2022/07/02 11:27:01;;;;;;;6.05;4.42;;;;;;;34.10;32.78;99234.61;1675923;82;21178;-90
2022/07/02 11:29:43;;;;;;;6.55;3.98;;;;;;;34.31;32.79;99227.14;1715165;80;21027;31
2022/07/02 11:32:30;;;;;;;5.55;4.20;;;;;;;34.51;32.86;99238.70;1659381;82;21004;31
2022/07/02 11:34:58;;;;;;;6.10;3.83;;;;;;;34.69;32.76;99230.20;1685218;83;21022;-91
2022/07/02 11:37:26;;;;;;;7.00;4.10;;;;;;;34.94;32.27;99223.90;1661733;82;21159;-89
2022/07/02 11:39:53;;;;;;;6.03;3.80;;;;;;;35.12;32.35;99220.73;1689163;83;21115;-91
2022/07/02 11:42:25;;;;;;;7.28;4.10;;;;;;;35.38;31.77;99220.17;1714306;80;21102;-81
2022/07/02 11:45:00;;;;;;;7.42;4.25;;;;;;;35.47;31.68;99216.80;1678374;81;21097;-91
2022/07/02 11:50:58;;;;;;;10.10;5.33;;;;;;;35.86;31.38;99207.31;1678401;80;21173;-82
2022/07/02 11:53:26;;;;;;;5.47;3.67;;;;;;;36.12;30.79;99210.14;1689078;80;21078;-88
2022/07/02 11:56:08;;;;;;;8.95;4.15;;;;;;;36.20;30.77;99199.17;1650944;83;21211;31
2022/07/02 11:58:56;;;;;;;5.95;3.60;;;;;;;36.36;30.91;99203.39;1661366;83;21085;31
2022/07/02 12:04:22;;;;;;;5.67;3.95;;;;;;;36.57;29.98;99190.24;1651833;82;21169;-87
2022/07/02 12:06:53;;;;;;;5.83;3.30;;;;;;;36.60;30.18;99166.80;1641920;82;21391;-87
2022/07/02 12:09:23;;;;;;;6.55;3.65;;;;;;;36.81;29.84;99182.61;1701800;82;21012;-85